createdAt,value
2022-10-10T00:08:08.321Z,78.98
2022-10-10T00:18:15.708Z,79.01
2022-10-10T00:28:23.594Z,79.06
2022-10-10T00:38:31.901Z,78.77
2022-10-10T00:48:39.877Z,79.13
2022-10-10T00:58:51.850Z,78.81
2022-10-10T01:08:59.511Z,78.99
2022-10-10T01:19:06.033Z,79.27
2022-10-10T01:29:16.011Z,78.98
2022-10-10T01:39:30.136Z,79.71
2022-10-10T01:49:37.250Z,79.66
2022-10-10T01:59:42.909Z,79.91
2022-10-10T02:09:53.553Z,79.96
2022-10-10T02:20:01.715Z,80.38
2022-10-10T02:30:11.063Z,80.43
2022-10-10T02:40:18.112Z,80.55
2022-10-10T02:50:25.979Z,80.38
2022-10-10T03:00:33.775Z,80.45
2022-10-10T03:10:40.162Z,80.69
2022-10-10T03:20:45.345Z,80.62
2022-10-10T03:30:52.737Z,80.53
2022-10-10T03:40:59.714Z,80.63
2022-10-10T03:51:06.903Z,80.61
2022-10-10T04:01:14.290Z,80.39
2022-10-10T04:11:21.373Z,80.48
2022-10-10T04:21:28.597Z,80.72
2022-10-10T04:31:35.799Z,80.68
2022-10-10T04:41:42.898Z,80.71
2022-10-10T04:51:49.994Z,80.56
2022-10-10T05:02:01.323Z,80.65
2022-10-10T05:12:09.067Z,80.61
2022-10-10T05:22:16.476Z,80.76
2022-10-10T05:32:23.859Z,80.85
2022-10-10T05:42:31.262Z,80.69
2022-10-10T05:52:38.491Z,80.70
2022-10-10T06:02:45.593Z,80.61
2022-10-10T06:12:53.636Z,81.37
2022-10-10T06:23:01.113Z,80.48
2022-10-10T06:33:07.855Z,79.05
2022-10-10T06:43:16.872Z,78.48
2022-10-10T06:53:23.902Z,78.19
2022-10-10T07:03:32.596Z,78.05
2022-10-10T07:13:40.689Z,77.55
2022-10-10T07:23:47.850Z,76.40
2022-10-10T07:33:55.451Z,75.87
2022-10-10T07:44:04.190Z,73.81
2022-10-10T07:54:13.099Z,72.34
2022-10-10T08:04:20.346Z,70.56
2022-10-10T08:14:28.076Z,68.83
2022-10-10T08:24:35.542Z,66.09
2022-10-10T08:34:42.810Z,64.31
2022-10-10T08:44:51.422Z,63.88
2022-10-10T08:54:58.857Z,63.15
2022-10-10T09:05:06.836Z,62.69
2022-10-10T09:15:19.757Z,60.01
2022-10-10T09:25:32.754Z,59.51
2022-10-10T09:35:43.941Z,58.99
2022-10-10T09:45:56.353Z,58.79
2022-10-10T09:56:06.219Z,57.36
2022-10-10T10:16:31.039Z,57.50
2022-10-10T10:26:43.938Z,57.31
2022-10-10T10:37:00.253Z,57.33
2022-10-10T10:47:17.056Z,57.66
2022-10-10T10:57:37.136Z,57.00
2022-10-10T11:07:49.262Z,57.03
2022-10-10T11:17:57.277Z,55.39
2022-10-10T11:28:13.224Z,56.04
2022-10-10T11:38:23.698Z,55.71
2022-10-10T11:48:29.595Z,55.68
2022-10-10T11:58:38.050Z,54.50
2022-10-10T12:08:47.876Z,54.07
2022-10-10T12:18:55.611Z,54.48
2022-10-10T12:29:03.524Z,53.64
2022-10-10T12:39:49.920Z,53.43
2022-10-10T12:49:58.979Z,53.51
2022-10-10T13:00:15.587Z,53.64
2022-10-10T13:10:21.202Z,53.58
2022-10-10T13:20:27.299Z,52.95
2022-10-10T13:30:34.556Z,53.30
2022-10-10T13:40:43.768Z,53.05
2022-10-10T13:50:56.349Z,53.09
2022-10-10T14:01:04.688Z,52.45
2022-10-10T14:11:20.765Z,53.22
2022-10-10T14:21:28.342Z,53.86
2022-10-10T14:31:35.891Z,53.69
2022-10-10T14:41:43.201Z,54.43
2022-10-10T14:51:50.736Z,54.62
2022-10-10T15:01:56.780Z,54.99
2022-10-10T15:12:04.324Z,55.52
2022-10-10T15:22:10.418Z,55.85
2022-10-10T15:32:17.682Z,56.09
2022-10-10T15:42:25.095Z,56.47
2022-10-10T15:52:32.770Z,56.74
2022-10-10T16:02:40.381Z,57.06
2022-10-10T16:12:47.842Z,57.45
2022-10-10T16:22:55.134Z,57.79
2022-10-10T16:33:02.151Z,58.19
2022-10-10T16:43:09.372Z,58.48
2022-10-10T16:53:16.459Z,58.82
2022-10-10T17:03:25.237Z,59.23
2022-10-10T17:13:33.595Z,59.70
2022-10-10T17:23:41.707Z,60.02
2022-10-10T17:33:53.552Z,60.53
2022-10-10T17:44:02.304Z,61.00
2022-10-10T17:54:10.254Z,61.49
2022-10-10T18:04:16.870Z,62.05
2022-10-10T18:14:22.840Z,62.52
2022-10-10T18:24:30.433Z,63.06
2022-10-10T18:34:37.078Z,63.59
2022-10-10T18:44:44.236Z,64.17
2022-10-10T18:54:51.520Z,64.57
2022-10-10T19:04:58.102Z,64.99
2022-10-10T19:15:05.699Z,65.37
2022-10-10T19:25:13.282Z,65.78
2022-10-10T19:35:20.817Z,66.06
2022-10-10T19:45:28.017Z,66.39
2022-10-10T19:55:35.397Z,66.76
2022-10-10T20:05:42.440Z,66.90
2022-10-10T20:15:50.845Z,67.33
2022-10-10T20:25:57.942Z,67.49
2022-10-10T20:36:02.550Z,67.77
2022-10-10T20:46:08.122Z,67.87
2022-10-10T20:56:14.999Z,68.26
2022-10-10T21:06:23.164Z,68.76
2022-10-10T21:16:33.591Z,69.12
2022-10-10T21:26:41.883Z,69.51
2022-10-10T21:36:49.450Z,69.99
2022-10-10T21:46:56.575Z,70.30
2022-10-10T21:57:03.525Z,70.63
2022-10-10T22:07:10.673Z,70.97
2022-10-10T22:17:17.858Z,71.33
2022-10-10T22:27:25.037Z,71.73
2022-10-10T22:37:32.279Z,71.68
2022-10-10T22:47:38.894Z,72.07
2022-10-10T22:57:46.292Z,72.02
2022-10-10T23:07:53.785Z,72.13
2022-10-10T23:18:01.352Z,72.17
2022-10-10T23:28:07.439Z,72.26
2022-10-10T23:38:14.623Z,72.29
2022-10-10T23:48:22.402Z,72.34
2022-10-10T23:58:29.950Z,72.50
